createdAt,value
2022-09-18T00:01:25.668Z,98523.47
2022-09-18T00:02:57.822Z,98543.81
2022-09-18T00:04:31.291Z,98542.44
2022-09-18T00:06:11.703Z,98557.44
2022-09-18T00:07:43.972Z,98551.47
2022-09-18T00:09:16.362Z,98566.88
2022-09-18T00:10:48.487Z,98557.66
2022-09-18T00:12:20.491Z,98577.13
2022-09-18T00:13:52.929Z,98583.00
2022-09-18T00:15:25.143Z,98576.94
2022-09-18T00:16:57.149Z,98581.53
2022-09-18T00:18:29.275Z,98598.19
2022-09-18T00:20:01.342Z,98598.38
2022-09-18T00:21:37.735Z,98595.66
2022-09-18T00:23:09.764Z,98617.34
2022-09-18T00:24:41.784Z,98624.22
2022-09-18T00:26:15.911Z,98630.59
2022-09-18T00:27:48.160Z,98631.94
2022-09-18T00:29:20.156Z,98653.03
2022-09-18T00:30:54.077Z,98635.78
2022-09-18T00:32:26.141Z,98647.28
2022-09-18T00:33:59.650Z,98667.38
2022-09-18T00:35:34.717Z,98682.88
2022-09-18T00:37:06.743Z,98672.63
2022-09-18T00:38:38.876Z,98660.03
2022-09-18T00:40:11.229Z,98658.88
2022-09-18T00:41:44.122Z,98687.50
2022-09-18T00:43:24.572Z,98710.69
2022-09-18T00:44:56.553Z,98699.69
2022-09-18T00:46:31.796Z,98697.19
2022-09-18T00:48:03.905Z,98686.63
2022-09-18T00:49:37.602Z,98713.16
2022-09-18T00:51:10.175Z,98719.13
2022-09-18T00:52:57.882Z,98688.91
2022-09-18T00:54:34.639Z,98702.72
2022-09-18T00:56:08.115Z,98716.66
2022-09-18T00:57:43.982Z,98709.63
2022-09-18T00:59:23.062Z,98705.69
2022-09-18T01:00:55.859Z,98713.91
2022-09-18T01:02:28.031Z,98718.78
2022-09-18T01:04:00.066Z,98723.22
2022-09-18T01:05:52.112Z,98732.19
2022-09-18T01:07:51.591Z,98741.69
2022-09-18T01:09:59.055Z,98756.41
2022-09-18T01:11:47.769Z,98750.84
2022-09-18T01:13:58.907Z,98762.34
2022-09-18T01:15:31.885Z,98774.03
2022-09-18T01:17:34.833Z,98792.31
2022-09-18T01:19:39.883Z,98800.09
2022-09-18T01:21:18.264Z,98788.47
2022-09-18T01:23:02.141Z,98790.88
2022-09-18T01:24:43.129Z,98798.28
2022-09-18T01:26:32.721Z,98806.53
2022-09-18T01:28:26.112Z,98817.09
2022-09-18T01:31:47.457Z,98818.41
2022-09-18T01:33:40.871Z,98816.13
2022-09-18T01:35:42.752Z,98822.75
2022-09-18T01:37:26.510Z,98833.94
2022-09-18T01:39:12.234Z,98837.72
2022-09-18T01:40:48.604Z,98827.31
2022-09-18T01:42:21.910Z,98828.97
2022-09-18T01:44:16.617Z,98841.75
2022-09-18T01:45:50.853Z,98845.81
2022-09-18T01:47:25.736Z,98848.19
2022-09-18T01:49:02.337Z,98860.16
2022-09-18T01:50:38.009Z,98870.28
2022-09-18T01:52:42.370Z,98874.47
2022-09-18T01:54:17.684Z,98874.16
2022-09-18T01:55:54.977Z,98872.16
2022-09-18T01:57:49.647Z,98870.31
2022-09-18T02:01:00.183Z,98875.09
2022-09-18T02:02:49.122Z,98875.34
2022-09-18T02:04:25.809Z,98898.63
2022-09-18T02:06:08.638Z,98915.06
2022-09-18T02:07:50.767Z,98925.16
2022-09-18T02:09:22.831Z,98931.31
2022-09-18T02:11:04.479Z,98925.41
2022-09-18T02:12:40.368Z,98929.03
2022-09-18T02:14:24.164Z,98933.69
2022-09-18T02:16:00.091Z,98935.66
2022-09-18T02:17:43.676Z,98930.56
2022-09-18T02:19:19.872Z,98942.13
2022-09-18T02:20:52.681Z,98956.09
2022-09-18T02:22:28.029Z,98965.94
2022-09-18T02:24:11.671Z,98966.44
2022-09-18T02:25:48.687Z,98970.19
2022-09-18T02:27:22.152Z,98967.53
2022-09-18T02:28:54.594Z,98967.59
2022-09-18T02:30:27.286Z,98971.13
2022-09-18T02:32:00.439Z,98977.09
2022-09-18T02:33:34.698Z,98973.66
2022-09-18T02:35:09.155Z,98970.13
2022-09-18T02:37:05.729Z,98981.22
2022-09-18T02:38:54.614Z,98985.53
2022-09-18T02:40:46.482Z,98987.06
2022-09-18T02:42:27.356Z,98994.00
2022-09-18T02:44:05.886Z,98997.38
2022-09-18T02:45:56.347Z,99001.00
2022-09-18T02:47:46.760Z,99001.13
2022-09-18T02:49:33.549Z,99010.34
2022-09-18T02:51:38.941Z,99007.91
2022-09-18T02:53:16.788Z,99021.88
2022-09-18T02:54:55.341Z,99039.47
2022-09-18T02:56:39.817Z,99035.31
2022-09-18T02:59:06.978Z,99032.84
2022-09-18T03:00:43.043Z,99036.53
2022-09-18T03:02:15.163Z,99042.91
2022-09-18T03:03:47.722Z,99037.69
2022-09-18T03:05:22.620Z,99056.59
2022-09-18T03:06:55.205Z,99063.47
2022-09-18T03:08:27.190Z,99060.75
2022-09-18T03:09:59.369Z,99066.19
2022-09-18T03:11:31.345Z,99069.66
2022-09-18T03:13:03.505Z,99066.19
2022-09-18T03:14:35.826Z,99081.06
2022-09-18T03:16:08.067Z,99088.97
2022-09-18T03:17:40.117Z,99089.91
2022-09-18T03:19:14.624Z,99105.47
2022-09-18T03:20:47.530Z,99104.53
2022-09-18T03:22:19.557Z,99108.84
2022-09-18T03:23:51.635Z,99115.13
2022-09-18T03:25:23.674Z,99123.91
2022-09-18T03:26:55.632Z,99113.59
2022-09-18T03:28:27.713Z,99109.56
2022-09-18T03:29:59.727Z,99119.91
2022-09-18T03:31:31.832Z,99133.47
2022-09-18T03:33:04.292Z,99124.09
2022-09-18T03:34:36.393Z,99123.03
2022-09-18T03:36:11.273Z,99109.16
2022-09-18T03:37:43.261Z,99120.28
2022-09-18T03:39:16.337Z,99128.94
2022-09-18T03:40:48.632Z,99131.81
2022-09-18T03:42:20.780Z,99146.91
2022-09-18T03:43:53.239Z,99147.88
2022-09-18T03:45:25.360Z,99153.25
2022-09-18T03:46:57.381Z,99144.50
2022-09-18T03:48:29.469Z,99145.34
2022-09-18T03:50:01.450Z,99147.16
2022-09-18T03:51:33.594Z,99131.81
2022-09-18T03:53:05.640Z,99161.47
2022-09-18T03:54:38.063Z,99160.22
2022-09-18T03:56:10.065Z,99164.75
2022-09-18T03:59:23.661Z,99155.59
2022-09-18T04:00:55.964Z,99167.81
2022-09-18T04:02:28.093Z,99172.94
2022-09-18T04:04:00.151Z,99183.44
2022-09-18T04:05:32.129Z,99185.53
2022-09-18T04:07:04.397Z,99168.59
2022-09-18T04:08:36.617Z,99174.75
2022-09-18T04:10:09.477Z,99171.31
2022-09-18T04:11:41.430Z,99168.50
2022-09-18T04:13:13.575Z,99172.41
2022-09-18T04:14:45.580Z,99184.13
2022-09-18T04:16:17.817Z,99175.53
2022-09-18T04:17:49.975Z,99190.13
2022-09-18T04:19:22.112Z,99202.34
2022-09-18T04:20:54.112Z,99205.75
2022-09-18T04:22:26.135Z,99211.16
2022-09-18T04:24:01.325Z,99207.50
2022-09-18T04:25:38.364Z,99221.16
2022-09-18T04:27:10.367Z,99222.81
2022-09-18T04:28:42.338Z,99215.09
2022-09-18T04:30:14.847Z,99212.31
2022-09-18T04:33:31.378Z,99215.84
2022-09-18T04:35:03.442Z,99228.69
2022-09-18T04:36:36.464Z,99238.28
2022-09-18T04:38:09.430Z,99232.22
2022-09-18T04:39:41.405Z,99247.81
2022-09-18T04:41:13.723Z,99248.59
2022-09-18T04:42:45.768Z,99244.94
2022-09-18T04:44:17.907Z,99243.16
2022-09-18T04:45:50.126Z,99243.22
2022-09-18T04:47:22.209Z,99264.00
2022-09-18T04:48:54.475Z,99264.06
2022-09-18T04:50:26.979Z,99269.22
2022-09-18T04:51:58.932Z,99267.34
2022-09-18T04:53:31.869Z,99264.84
2022-09-18T04:55:04.222Z,99271.88
2022-09-18T04:56:36.681Z,99263.81
2022-09-18T04:58:08.767Z,99264.84
2022-09-18T04:59:40.762Z,99270.72
2022-09-18T05:01:12.776Z,99262.75
2022-09-18T05:02:45.199Z,99266.19
2022-09-18T05:04:17.453Z,99270.38
2022-09-18T05:05:50.551Z,99252.06
2022-09-18T05:08:58.208Z,99261.50
2022-09-18T05:10:30.413Z,99268.16
2022-09-18T05:12:03.010Z,99267.22
2022-09-18T05:13:35.063Z,99267.03
2022-09-18T05:15:07.587Z,99277.13
2022-09-18T05:16:39.679Z,99287.47
2022-09-18T05:18:13.109Z,99304.09
2022-09-18T05:19:45.089Z,99303.69
2022-09-18T05:21:17.363Z,99310.78
2022-09-18T05:22:49.524Z,99316.56
2022-09-18T05:24:21.810Z,99314.19
2022-09-18T05:25:53.810Z,99314.69
2022-09-18T05:27:26.994Z,99316.41
2022-09-18T05:28:59.018Z,99317.81
2022-09-18T05:30:31.953Z,99328.22
2022-09-18T05:32:04.429Z,99330.22
2022-09-18T05:33:37.093Z,99333.59
2022-09-18T05:35:09.433Z,99324.78
2022-09-18T05:36:41.764Z,99327.97
2022-09-18T05:38:13.856Z,99328.88
2022-09-18T05:39:46.204Z,99327.25
2022-09-18T05:42:54.372Z,99307.09
2022-09-18T05:44:26.430Z,99314.72
2022-09-18T05:46:01.351Z,99319.09
2022-09-18T05:47:36.585Z,99319.31
2022-09-18T05:49:08.961Z,99327.13
2022-09-18T05:50:43.017Z,99327.56
2022-09-18T05:52:15.448Z,99316.06
2022-09-18T05:53:49.006Z,99322.00
2022-09-18T05:55:21.704Z,99335.25
2022-09-18T05:56:54.527Z,99337.56
2022-09-18T05:58:27.136Z,99326.91
2022-09-18T05:59:59.237Z,99335.22
2022-09-18T06:01:32.036Z,99335.06
2022-09-18T06:03:10.163Z,99337.38
2022-09-18T06:04:42.729Z,99342.59
2022-09-18T06:06:15.106Z,99345.09
2022-09-18T06:07:47.910Z,99344.94
2022-09-18T06:09:20.178Z,99349.53
2022-09-18T06:10:53.951Z,99349.16
2022-09-18T06:12:26.306Z,99351.72
2022-09-18T06:13:58.836Z,99354.09
2022-09-18T06:15:31.845Z,99346.91
2022-09-18T06:17:04.203Z,99346.75
2022-09-18T06:18:36.238Z,99342.69
2022-09-18T06:20:09.612Z,99347.53
2022-09-18T06:21:41.967Z,99344.63
2022-09-18T06:23:14.255Z,99337.03
2022-09-18T06:24:46.347Z,99348.31
2022-09-18T06:26:18.629Z,99348.13
2022-09-18T06:27:55.021Z,99356.31
2022-09-18T06:29:27.271Z,99352.75
2022-09-18T06:31:00.009Z,99358.06
2022-09-18T06:32:32.797Z,99345.91
2022-09-18T06:34:05.103Z,99358.63
2022-09-18T06:35:40.567Z,99352.53
2022-09-18T06:37:14.063Z,99356.81
2022-09-18T06:38:50.475Z,99358.25
2022-09-18T06:41:56.727Z,99359.75
2022-09-18T06:43:29.111Z,99354.47
2022-09-18T06:45:01.568Z,99375.13
2022-09-18T06:46:34.512Z,99373.34
2022-09-18T06:48:07.751Z,99379.06
2022-09-18T06:49:40.099Z,99384.06
2022-09-18T06:51:12.474Z,99381.38
2022-09-18T06:52:44.715Z,99371.88
2022-09-18T06:54:17.918Z,99373.25
2022-09-18T06:55:50.632Z,99359.84
2022-09-18T06:57:22.811Z,99362.09
2022-09-18T06:58:54.889Z,99366.88
2022-09-18T07:00:28.401Z,99375.31
2022-09-18T07:02:00.959Z,99374.34
2022-09-18T07:03:33.163Z,99369.59
2022-09-18T07:05:05.937Z,99369.31
2022-09-18T07:06:38.019Z,99377.91
2022-09-18T07:08:10.457Z,99382.81
2022-09-18T07:09:42.842Z,99390.13
2022-09-18T07:11:15.260Z,99378.66
2022-09-18T07:12:48.829Z,99377.38
2022-09-18T07:14:21.061Z,99380.75
2022-09-18T07:15:53.400Z,99388.06
2022-09-18T07:17:26.589Z,99395.97
2022-09-18T07:18:58.720Z,99395.13
2022-09-18T07:20:31.212Z,99401.28
2022-09-18T07:22:03.482Z,99395.19
2022-09-18T07:23:36.366Z,99423.34
2022-09-18T07:25:10.030Z,99416.28
2022-09-18T07:26:42.422Z,99402.25
2022-09-18T07:28:14.479Z,99391.50
2022-09-18T07:29:46.995Z,99392.06
2022-09-18T07:31:19.953Z,99395.25
2022-09-18T07:32:52.329Z,99402.09
2022-09-18T07:34:25.313Z,99420.97
2022-09-18T07:36:05.272Z,99401.97
2022-09-18T07:37:39.411Z,99402.41
2022-09-18T07:39:11.648Z,99398.84
2022-09-18T07:40:46.029Z,99397.75
2022-09-18T07:42:18.331Z,99404.00
2022-09-18T07:43:51.431Z,99403.06
2022-09-18T07:45:23.659Z,99408.94
2022-09-18T07:46:56.237Z,99403.63
2022-09-18T07:48:28.566Z,99407.97
2022-09-18T07:50:00.769Z,99400.56
2022-09-18T07:51:33.095Z,99404.97
2022-09-18T07:53:06.421Z,99401.53
2022-09-18T07:54:39.202Z,99394.03
2022-09-18T07:56:12.305Z,99405.28
2022-09-18T07:57:45.803Z,99388.13
2022-09-18T07:59:18.225Z,99387.53
2022-09-18T08:00:52.299Z,99416.03
2022-09-18T08:02:24.694Z,99405.16
2022-09-18T08:03:57.369Z,99403.03
2022-09-18T08:05:29.877Z,99410.53
2022-09-18T08:07:04.647Z,99410.91
2022-09-18T08:08:37.221Z,99418.88
2022-09-18T08:10:11.452Z,99429.88
2022-09-18T08:11:43.907Z,99409.47
2022-09-18T08:13:16.258Z,99431.22
2022-09-18T08:14:48.591Z,99428.72
2022-09-18T08:16:22.160Z,99436.72
2022-09-18T08:17:54.666Z,99433.50
2022-09-18T08:19:27.012Z,99442.97
2022-09-18T08:20:59.337Z,99438.56
2022-09-18T08:22:31.674Z,99441.19
2022-09-18T08:24:04.523Z,99441.19
2022-09-18T08:25:37.950Z,99441.97
2022-09-18T08:27:13.253Z,99445.72
2022-09-18T08:28:45.563Z,99441.81
2022-09-18T08:30:18.327Z,99445.59
2022-09-18T08:31:50.843Z,99448.97
2022-09-18T08:33:23.809Z,99426.88
2022-09-18T08:34:56.491Z,99431.00
2022-09-18T08:36:28.853Z,99421.13
2022-09-18T08:38:02.457Z,99447.16
2022-09-18T08:41:47.458Z,99451.28
2022-09-18T08:43:28.568Z,99438.03
2022-09-18T08:45:08.746Z,99444.47
2022-09-18T08:46:57.860Z,99438.28
2022-09-18T08:48:35.579Z,99464.47
2022-09-18T08:50:20.030Z,99459.88
2022-09-18T08:52:04.152Z,99478.84
2022-09-18T08:53:43.105Z,99469.97
2022-09-18T08:55:24.329Z,99465.56
2022-09-18T08:56:57.644Z,99476.72
2022-09-18T08:58:31.691Z,99470.75
2022-09-18T09:00:22.585Z,99471.66
2022-09-18T09:02:20.827Z,99462.78
2022-09-18T09:04:07.266Z,99466.00
2022-09-18T09:06:06.568Z,99462.47
2022-09-18T09:07:59.833Z,99464.75
2022-09-18T09:09:50.231Z,99457.22
2022-09-18T09:11:26.361Z,99464.75
2022-09-18T09:13:05.356Z,99468.38
2022-09-18T09:16:19.202Z,99457.63
2022-09-18T09:18:21.888Z,99472.16
2022-09-18T09:20:02.531Z,99472.44
2022-09-18T09:22:02.142Z,99474.44
2022-09-18T09:23:43.112Z,99460.31
2022-09-18T09:25:31.670Z,99462.34
2022-09-18T09:27:24.000Z,99450.06
2022-09-18T09:29:04.695Z,99460.06
2022-09-18T09:30:37.816Z,99458.13
2022-09-18T09:32:19.163Z,99454.13
2022-09-18T09:34:22.970Z,99458.06
2022-09-18T09:35:56.139Z,99460.81
2022-09-18T09:37:41.913Z,99471.03
2022-09-18T09:39:43.115Z,99454.09
2022-09-18T09:41:21.301Z,99466.34
2022-09-18T09:43:14.876Z,99461.38
2022-09-18T09:44:58.584Z,99466.63
2022-09-18T09:46:44.159Z,99457.56
2022-09-18T09:50:06.453Z,99463.47
2022-09-18T09:51:44.136Z,99459.63
2022-09-18T09:53:16.695Z,99465.00
2022-09-18T09:54:52.859Z,99461.25
2022-09-18T09:56:43.737Z,99468.19
2022-09-18T09:58:34.648Z,99468.94
2022-09-18T10:00:24.969Z,99476.53
2022-09-18T10:02:06.892Z,99473.91
2022-09-18T10:03:42.754Z,99469.28
2022-09-18T10:05:18.745Z,99471.56
2022-09-18T10:06:55.103Z,99472.38
2022-09-18T10:08:47.701Z,99474.13
2022-09-18T10:10:28.716Z,99480.31
2022-09-18T10:12:35.473Z,99472.81
2022-09-18T10:14:10.758Z,99478.91
2022-09-18T10:15:46.330Z,99480.41
2022-09-18T10:17:20.644Z,99480.25
2022-09-18T10:18:52.981Z,99478.16
2022-09-18T10:20:31.049Z,99486.44
2022-09-18T10:22:06.318Z,99505.56
2022-09-18T10:25:32.052Z,99481.78
2022-09-18T10:27:12.118Z,99486.84
2022-09-18T10:28:44.408Z,99496.44
2022-09-18T10:30:19.083Z,99484.59
2022-09-18T10:31:54.191Z,99483.09
2022-09-18T10:33:42.041Z,99490.13
2022-09-18T10:35:29.564Z,99496.59
2022-09-18T10:37:02.371Z,99494.31
2022-09-18T10:38:35.338Z,99479.81
2022-09-18T10:40:32.747Z,99487.81
2022-09-18T10:42:11.676Z,99495.84
2022-09-18T10:44:02.533Z,99487.50
2022-09-18T10:45:40.646Z,99498.41
2022-09-18T10:47:21.540Z,99509.38
2022-09-18T10:48:54.451Z,99493.97
2022-09-18T10:50:28.084Z,99500.38
2022-09-18T10:52:32.262Z,99496.97
2022-09-18T10:54:18.994Z,99494.28
2022-09-18T10:55:55.717Z,99500.16
2022-09-18T10:57:53.080Z,99491.44
2022-09-18T10:59:28.783Z,99503.44
2022-09-18T11:01:07.405Z,99495.56
2022-09-18T11:02:50.884Z,99497.06
2022-09-18T11:04:23.435Z,99492.28
2022-09-18T11:06:03.667Z,99496.53
2022-09-18T11:07:40.322Z,99498.66
2022-09-18T11:09:19.691Z,99502.03
2022-09-18T11:10:56.124Z,99498.47
2022-09-18T11:12:28.423Z,99496.75
2022-09-18T11:14:03.201Z,99506.38
2022-09-18T11:15:37.091Z,99510.28
2022-09-18T11:17:21.269Z,99506.75
2022-09-18T11:19:28.097Z,99504.84
2022-09-18T11:21:05.535Z,99501.84
2022-09-18T11:22:43.179Z,99503.16
2022-09-18T11:24:27.580Z,99506.53
2022-09-18T11:26:27.565Z,99505.50
2022-09-18T11:28:01.040Z,99515.66
2022-09-18T11:29:40.296Z,99512.75
2022-09-18T11:31:16.184Z,99516.75
2022-09-18T11:32:51.288Z,99499.75
2022-09-18T11:34:26.946Z,99514.00
2022-09-18T11:36:05.975Z,99503.72
2022-09-18T11:39:28.044Z,99501.16
2022-09-18T11:41:00.805Z,99520.25
2022-09-18T11:42:33.290Z,99510.78
2022-09-18T11:44:16.168Z,99508.03
2022-09-18T11:46:03.090Z,99517.72
2022-09-18T11:47:41.163Z,99512.53
2022-09-18T11:49:48.673Z,99513.84
2022-09-18T11:51:28.924Z,99512.50
2022-09-18T11:53:05.139Z,99532.78
2022-09-18T11:54:42.996Z,99512.34
2022-09-18T11:56:21.599Z,99512.50
2022-09-18T11:58:14.879Z,99513.16
2022-09-18T12:00:00.651Z,99511.25
2022-09-18T12:01:38.863Z,99513.13
2022-09-18T12:03:25.447Z,99513.03
2022-09-18T12:05:21.102Z,99514.13
2022-09-18T12:06:59.367Z,99507.97
2022-09-18T12:08:54.599Z,99513.66
2022-09-18T12:10:57.466Z,99520.72
2022-09-18T12:14:20.872Z,99522.63
2022-09-18T12:16:21.764Z,99526.38
2022-09-18T12:18:19.661Z,99524.81
2022-09-18T12:20:06.954Z,99531.16
2022-09-18T12:22:17.289Z,99555.22
2022-09-18T12:23:50.246Z,99532.97
2022-09-18T12:25:37.280Z,99538.03
2022-09-18T12:27:27.681Z,99533.47
2022-09-18T12:29:09.539Z,99541.78
2022-09-18T12:30:50.457Z,99553.16
2022-09-18T12:32:42.161Z,99538.63
2022-09-18T12:34:38.669Z,99529.41
2022-09-18T12:36:42.907Z,99536.25
2022-09-18T12:38:21.786Z,99542.19
2022-09-18T12:40:00.735Z,99543.13
2022-09-18T12:41:48.505Z,99546.22
2022-09-18T12:43:49.939Z,99548.00
2022-09-18T12:45:24.818Z,99549.59
2022-09-18T12:47:00.669Z,99525.34
2022-09-18T12:48:57.670Z,99544.59
2022-09-18T12:50:46.373Z,99553.06
2022-09-18T12:53:00.276Z,99569.09
2022-09-18T12:55:06.258Z,99557.84
2022-09-18T12:56:57.824Z,99555.22
2022-09-18T12:58:41.758Z,99543.47
2022-09-18T13:00:16.555Z,99539.91
2022-09-18T13:01:54.330Z,99551.47
2022-09-18T13:03:32.886Z,99545.25
2022-09-18T13:05:23.087Z,99567.03
2022-09-18T13:07:13.685Z,99566.75
2022-09-18T13:08:48.751Z,99565.06
2022-09-18T13:10:47.559Z,99568.91
2022-09-18T13:12:28.443Z,99564.88
2022-09-18T13:14:08.804Z,99563.00
2022-09-18T13:15:50.198Z,99560.84
2022-09-18T13:17:32.495Z,99576.16
2022-09-18T13:19:25.304Z,99572.97
2022-09-18T13:20:59.331Z,99586.28
2022-09-18T13:22:35.318Z,99577.66
2022-09-18T13:24:20.151Z,99572.66
2022-09-18T13:25:53.486Z,99579.91
2022-09-18T13:27:25.557Z,99587.53
2022-09-18T13:28:57.860Z,99585.94
2022-09-18T13:30:31.695Z,99584.03
2022-09-18T13:33:40.009Z,99574.84
2022-09-18T13:35:15.189Z,99582.09
2022-09-18T13:36:47.724Z,99573.56
2022-09-18T13:38:22.493Z,99579.34
2022-09-18T13:40:11.266Z,99581.88
2022-09-18T13:41:55.407Z,99578.06
2022-09-18T13:43:32.147Z,99582.09
2022-09-18T13:45:14.033Z,99590.06
2022-09-18T13:46:46.758Z,99587.97
2022-09-18T13:48:34.856Z,99588.56
2022-09-18T13:50:17.176Z,99596.91
2022-09-18T13:51:49.534Z,99597.00
2022-09-18T13:53:44.506Z,99599.09
2022-09-18T13:55:16.748Z,99588.28
2022-09-18T13:57:05.357Z,99583.56
2022-09-18T13:58:48.696Z,99591.56
2022-09-18T14:00:21.038Z,99597.84
2022-09-18T14:01:58.492Z,99604.88
2022-09-18T14:03:38.840Z,99608.16
2022-09-18T14:05:32.306Z,99610.34
2022-09-18T14:07:04.660Z,99613.13
2022-09-18T14:08:38.228Z,99605.63
2022-09-18T14:10:33.351Z,99615.22
2022-09-18T14:12:16.114Z,99610.06
2022-09-18T14:13:58.768Z,99617.47
2022-09-18T14:15:31.981Z,99621.41
2022-09-18T14:17:15.415Z,99615.41
2022-09-18T14:18:48.046Z,99626.56
2022-09-18T14:20:22.542Z,99618.50
2022-09-18T14:21:55.219Z,99611.56
2022-09-18T14:23:37.182Z,99625.38
2022-09-18T14:25:13.472Z,99632.22
2022-09-18T14:26:46.474Z,99636.88
2022-09-18T14:28:21.895Z,99627.88
2022-09-18T14:29:59.237Z,99637.94
2022-09-18T14:31:41.771Z,99640.00
2022-09-18T14:33:21.489Z,99645.81
2022-09-18T14:35:19.262Z,99636.13
2022-09-18T14:36:55.548Z,99643.56
2022-09-18T14:38:34.064Z,99632.59
2022-09-18T14:40:21.285Z,99648.53
2022-09-18T14:41:57.983Z,99641.13
2022-09-18T14:43:30.332Z,99647.97
2022-09-18T14:45:14.203Z,99641.50
2022-09-18T14:46:56.116Z,99638.59
2022-09-18T14:48:37.952Z,99651.44
2022-09-18T14:50:35.586Z,99641.75
2022-09-18T14:52:27.859Z,99648.72
2022-09-18T14:54:00.587Z,99639.34
2022-09-18T14:55:42.675Z,99640.00
2022-09-18T14:57:16.996Z,99645.59
2022-09-18T14:58:51.045Z,99643.06
2022-09-18T15:00:28.419Z,99644.94
2022-09-18T15:02:36.424Z,99648.41
2022-09-18T15:04:15.790Z,99640.81
2022-09-18T15:07:27.217Z,99648.50
2022-09-18T15:08:59.697Z,99648.38
2022-09-18T15:10:33.265Z,99647.53
2022-09-18T15:12:11.140Z,99651.91
2022-09-18T15:13:44.161Z,99649.41
2022-09-18T15:15:36.681Z,99650.59
2022-09-18T15:17:20.912Z,99652.03
2022-09-18T15:18:53.783Z,99660.72
2022-09-18T15:20:29.059Z,99660.16
2022-09-18T15:22:01.642Z,99653.84
2022-09-18T15:23:38.890Z,99650.22
2022-09-18T15:25:15.901Z,99653.63
2022-09-18T15:26:55.989Z,99657.25
2022-09-18T15:28:35.511Z,99662.78
2022-09-18T15:30:20.152Z,99669.38
2022-09-18T15:31:53.227Z,99677.25
2022-09-18T15:33:27.764Z,99668.69
2022-09-18T15:35:00.681Z,99681.75
2022-09-18T15:38:18.836Z,99681.91
2022-09-18T15:40:09.937Z,99677.91
2022-09-18T15:41:46.115Z,99678.84
2022-09-18T15:43:41.393Z,99682.50
2022-09-18T15:45:20.215Z,99675.41
2022-09-18T15:46:52.555Z,99679.13
2022-09-18T15:48:48.217Z,99680.22
2022-09-18T15:50:20.302Z,99672.81
2022-09-18T15:51:52.657Z,99684.47
2022-09-18T15:53:26.354Z,99683.66
2022-09-18T15:55:10.915Z,99688.06
2022-09-18T15:56:52.576Z,99688.53
2022-09-18T15:58:44.470Z,99692.53
2022-09-18T16:00:25.907Z,99690.25
2022-09-18T16:02:05.212Z,99695.88
2022-09-18T16:03:37.656Z,99686.50
2022-09-18T16:05:15.404Z,99690.91
2022-09-18T16:06:54.328Z,99680.41
2022-09-18T16:08:30.106Z,99685.72
2022-09-18T16:11:45.331Z,99694.28
2022-09-18T16:13:17.665Z,99687.69
2022-09-18T16:15:15.815Z,99685.84
2022-09-18T16:16:48.172Z,99694.78
2022-09-18T16:18:26.137Z,99688.69
2022-09-18T16:20:00.963Z,99692.31
2022-09-18T16:21:40.933Z,99696.09
2022-09-18T16:23:27.710Z,99697.41
2022-09-18T16:25:00.348Z,99697.28
2022-09-18T16:26:35.804Z,99705.47
2022-09-18T16:28:28.764Z,99700.03
2022-09-18T16:30:01.362Z,99700.94
2022-09-18T16:31:37.951Z,99699.97
2022-09-18T16:33:22.298Z,99708.72
2022-09-18T16:34:54.637Z,99712.28
2022-09-18T16:36:34.523Z,99711.88
2022-09-18T16:38:06.873Z,99710.00
2022-09-18T16:39:40.402Z,99714.69
2022-09-18T16:41:12.774Z,99721.25
2022-09-18T16:42:45.311Z,99716.66
2022-09-18T16:44:19.348Z,99722.38
2022-09-18T16:45:52.167Z,99716.25
2022-09-18T16:47:26.191Z,99728.91
2022-09-18T16:48:58.524Z,99730.31
2022-09-18T16:50:30.807Z,99730.00
2022-09-18T16:52:03.740Z,99727.25
2022-09-18T16:53:38.704Z,99731.41
2022-09-18T16:55:11.081Z,99729.19
2022-09-18T16:56:51.986Z,99738.13
2022-09-18T16:58:26.369Z,99730.78
2022-09-18T17:00:01.887Z,99732.13
2022-09-18T17:01:54.313Z,99741.22
2022-09-18T17:03:29.134Z,99733.91
2022-09-18T17:05:02.159Z,99741.38
2022-09-18T17:06:34.448Z,99746.13
2022-09-18T17:08:07.921Z,99743.88
2022-09-18T17:11:14.065Z,99750.66
2022-09-18T17:12:46.968Z,99757.00
2022-09-18T17:14:19.563Z,99750.41
2022-09-18T17:15:51.995Z,99754.25
2022-09-18T17:17:24.304Z,99765.03
2022-09-18T17:18:56.731Z,99760.94
2022-09-18T17:20:29.495Z,99767.28
2022-09-18T17:22:01.736Z,99763.28
2022-09-18T17:23:34.427Z,99772.19
2022-09-18T17:25:07.140Z,99773.25
2022-09-18T17:26:41.066Z,99772.72
2022-09-18T17:28:13.386Z,99775.59
2022-09-18T17:29:45.923Z,99775.91
2022-09-18T17:31:19.139Z,99776.00
2022-09-18T17:32:51.681Z,99776.19
2022-09-18T17:34:24.702Z,99788.50
2022-09-18T17:35:57.061Z,99793.88
2022-09-18T17:37:30.662Z,99787.94
2022-09-18T17:39:03.026Z,99796.88
2022-09-18T17:40:35.455Z,99792.72
2022-09-18T17:42:07.776Z,99792.03
2022-09-18T17:43:40.610Z,99796.50
2022-09-18T17:45:12.965Z,99802.72
2022-09-18T17:46:45.785Z,99799.34
2022-09-18T17:48:18.307Z,99804.72
2022-09-18T17:49:50.783Z,99799.72
2022-09-18T17:51:28.916Z,99809.31
2022-09-18T17:53:01.736Z,99802.63
2022-09-18T17:54:36.442Z,99813.97
2022-09-18T17:56:18.777Z,99814.06
2022-09-18T17:57:53.358Z,99806.47
2022-09-18T17:59:27.064Z,99813.47
2022-09-18T18:01:00.287Z,99817.75
2022-09-18T18:02:33.135Z,99823.91
2022-09-18T18:04:06.412Z,99820.56
2022-09-18T18:05:38.813Z,99826.84
2022-09-18T18:07:11.110Z,99827.81
2022-09-18T18:08:55.024Z,99801.13
2022-09-18T18:10:27.186Z,99825.84
2022-09-18T18:12:00.004Z,99829.44
2022-09-18T18:13:32.360Z,99829.44
2022-09-18T18:15:05.493Z,99833.00
2022-09-18T18:16:38.319Z,99830.50
2022-09-18T18:18:10.696Z,99839.25
2022-09-18T18:19:43.081Z,99840.22
2022-09-18T18:21:15.722Z,99849.03
2022-09-18T18:22:48.173Z,99844.88
2022-09-18T18:24:20.941Z,99841.53
2022-09-18T18:25:53.588Z,99839.88
2022-09-18T18:27:25.905Z,99840.03
2022-09-18T18:28:58.163Z,99852.09
2022-09-18T18:30:30.453Z,99846.06
2022-09-18T18:32:05.602Z,99847.03
2022-09-18T18:33:38.775Z,99850.44
2022-09-18T18:35:11.319Z,99860.84
2022-09-18T18:36:43.780Z,99857.28
2022-09-18T18:38:17.688Z,99852.28
2022-09-18T18:39:50.007Z,99852.28
2022-09-18T18:41:24.279Z,99854.97
2022-09-18T18:42:56.967Z,99857.66
2022-09-18T18:44:29.406Z,99856.03
2022-09-18T18:46:02.640Z,99856.03
2022-09-18T18:47:34.970Z,99856.16
2022-09-18T18:49:12.962Z,99856.28
2022-09-18T18:50:45.389Z,99861.66
2022-09-18T18:52:18.547Z,99858.28
2022-09-18T18:53:50.912Z,99865.31
2022-09-18T18:55:23.374Z,99855.88
2022-09-18T18:56:55.630Z,99853.38
2022-09-18T18:58:28.137Z,99858.56
2022-09-18T19:00:00.540Z,99858.69
2022-09-18T19:01:33.297Z,99864.72
2022-09-18T19:03:05.697Z,99860.38
2022-09-18T19:04:38.901Z,99872.47
2022-09-18T19:06:12.064Z,99865.56
2022-09-18T19:07:44.772Z,99870.00
2022-09-18T19:09:21.168Z,99864.97
2022-09-18T19:10:58.314Z,99861.50
2022-09-18T19:12:31.478Z,99868.66
2022-09-18T19:14:03.842Z,99865.34
2022-09-18T19:15:38.521Z,99864.53
2022-09-18T19:17:10.688Z,99856.81
2022-09-18T19:18:45.049Z,99860.28
2022-09-18T19:20:17.423Z,99856.03
2022-09-18T19:21:50.228Z,99863.84
2022-09-18T19:23:24.990Z,99857.84
2022-09-18T19:24:57.217Z,99863.91
2022-09-18T19:26:30.659Z,99864.75
2022-09-18T19:28:02.710Z,99867.19
2022-09-18T19:29:36.143Z,99861.25
2022-09-18T19:31:08.358Z,99851.72
2022-09-18T19:32:40.779Z,99860.50
2022-09-18T19:34:17.472Z,99859.75
2022-09-18T19:35:50.747Z,99863.22
2022-09-18T19:37:29.113Z,99843.47